sensor_id;sensor_type;location;lat;lon;timestamp;temperature;humidity
3709;DHT22;1870;53.996;10.784;2023-09-18T00:00:00;20.90;99.90
3709;DHT22;1870;53.996;10.784;2023-09-18T00:02:26;20.80;99.90
3709;DHT22;1870;53.996;10.784;2023-09-18T00:04:52;20.90;99.90
3709;DHT22;1870;53.996;10.784;2023-09-18T00:07:18;20.90;99.90
3709;DHT22;1870;53.996;10.784;2023-09-18T00:09:43;20.80;99.90
3709;DHT22;1870;53.996;10.784;2023-09-18T00:12:09;20.80;99.90
3709;DHT22;1870;53.996;10.784;2023-09-18T00:14:36;20.80;99.90
3709;DHT22;1870;53.996;10.784;2023-09-18T00:17:03;20.80;99.90
3709;DHT22;1870;53.996;10.784;2023-09-18T00:19:28;20.70;99.90
3709;DHT22;1870;53.996;10.784;2023-09-18T00:21:55;20.80;99.90
3709;DHT22;1870;53.996;10.784;2023-09-18T00:24:21;20.80;99.90
3709;DHT22;1870;53.996;10.784;2023-09-18T00:26:47;20.80;99.90
3709;DHT22;1870;53.996;10.784;2023-09-18T00:29:13;20.70;99.90
3709;DHT22;1870;53.996;10.784;2023-09-18T00:31:39;20.70;99.90
3709;DHT22;1870;53.996;10.784;2023-09-18T00:34:05;20.60;99.90
3709;DHT22;1870;53.996;10.784;2023-09-18T00:36:30;20.60;99.90
3709;DHT22;1870;53.996;10.784;2023-09-18T00:38:56;20.50;99.90
3709;DHT22;1870;53.996;10.784;2023-09-18T00:41:21;20.50;99.90
3709;DHT22;1870;53.996;10.784;2023-09-18T00:43:48;20.50;99.90
3709;DHT22;1870;53.996;10.784;2023-09-18T00:46:13;20.50;99.90
3709;DHT22;1870;53.996;10.784;2023-09-18T00:48:39;20.40;99.90
3709;DHT22;1870;53.996;10.784;2023-09-18T00:51:06;20.40;99.90
3709;DHT22;1870;53.996;10.784;2023-09-18T00:53:32;20.30;99.90
3709;DHT22;1870;53.996;10.784;2023-09-18T00:56:00;20.30;99.90
3709;DHT22;1870;53.996;10.784;2023-09-18T00:58:28;20.20;99.90
3709;DHT22;1870;53.996;10.784;2023-09-18T01:00:53;20.10;99.90
3709;DHT22;1870;53.996;10.784;2023-09-18T01:03:22;20.10;99.90
3709;DHT22;1870;53.996;10.784;2023-09-18T01:05:48;20.10;99.90
3709;DHT22;1870;53.996;10.784;2023-09-18T01:08:13;20.10;99.90
3709;DHT22;1870;53.996;10.784;2023-09-18T01:11:00;20.10;99.90
3709;DHT22;1870;53.996;10.784;2023-09-18T01:13:38;20.10;99.90
3709;DHT22;1870;53.996;10.784;2023-09-18T01:16:10;20.10;99.90
3709;DHT22;1870;53.996;10.784;2023-09-18T01:18:38;20.00;99.90
3709;DHT22;1870;53.996;10.784;2023-09-18T01:21:03;20.00;99.90
3709;DHT22;1870;53.996;10.784;2023-09-18T01:23:29;20.00;99.90
3709;DHT22;1870;53.996;10.784;2023-09-18T01:25:55;20.00;99.90
3709;DHT22;1870;53.996;10.784;2023-09-18T01:28:20;20.00;99.90
3709;DHT22;1870;53.996;10.784;2023-09-18T01:30:46;20.00;99.90
3709;DHT22;1870;53.996;10.784;2023-09-18T01:33:12;20.00;99.90
3709;DHT22;1870;53.996;10.784;2023-09-18T01:35:39;19.90;99.90
3709;DHT22;1870;53.996;10.784;2023-09-18T01:38:05;19.90;99.90
3709;DHT22;1870;53.996;10.784;2023-09-18T01:40:31;19.90;99.90
3709;DHT22;1870;53.996;10.784;2023-09-18T01:42:57;19.90;99.90
3709;DHT22;1870;53.996;10.784;2023-09-18T01:45:22;19.80;99.90
3709;DHT22;1870;53.996;10.784;2023-09-18T01:47:48;19.80;99.90
3709;DHT22;1870;53.996;10.784;2023-09-18T01:50:14;19.80;99.90
3709;DHT22;1870;53.996;10.784;2023-09-18T01:52:39;19.80;99.90
3709;DHT22;1870;53.996;10.784;2023-09-18T01:55:06;19.80;99.90
3709;DHT22;1870;53.996;10.784;2023-09-18T01:57:33;19.80;99.90
3709;DHT22;1870;53.996;10.784;2023-09-18T01:59:58;19.80;99.90
3709;DHT22;1870;53.996;10.784;2023-09-18T02:02:24;19.70;99.90
3709;DHT22;1870;53.996;10.784;2023-09-18T02:04:50;19.70;99.90
3709;DHT22;1870;53.996;10.784;2023-09-18T02:07:15;19.70;99.90
3709;DHT22;1870;53.996;10.784;2023-09-18T02:09:41;19.80;99.90
3709;DHT22;1870;53.996;10.784;2023-09-18T02:12:07;19.70;99.90
3709;DHT22;1870;53.996;10.784;2023-09-18T02:14:32;19.70;99.90
3709;DHT22;1870;53.996;10.784;2023-09-18T02:16:59;19.80;99.90
3709;DHT22;1870;53.996;10.784;2023-09-18T02:19:25;19.70;99.90
3709;DHT22;1870;53.996;10.784;2023-09-18T02:21:51;19.70;99.90
3709;DHT22;1870;53.996;10.784;2023-09-18T02:24:17;19.70;99.90
3709;DHT22;1870;53.996;10.784;2023-09-18T02:26:43;19.70;99.90
3709;DHT22;1870;53.996;10.784;2023-09-18T02:29:10;19.70;99.90
3709;DHT22;1870;53.996;10.784;2023-09-18T02:31:37;19.70;99.90
3709;DHT22;1870;53.996;10.784;2023-09-18T02:34:03;19.70;99.90
3709;DHT22;1870;53.996;10.784;2023-09-18T02:36:29;19.60;99.90
3709;DHT22;1870;53.996;10.784;2023-09-18T02:38:54;19.60;99.90
3709;DHT22;1870;53.996;10.784;2023-09-18T02:41:20;19.60;99.90
3709;DHT22;1870;53.996;10.784;2023-09-18T02:43:46;19.60;99.90
3709;DHT22;1870;53.996;10.784;2023-09-18T02:46:11;19.60;99.90
3709;DHT22;1870;53.996;10.784;2023-09-18T02:48:37;19.70;99.90
3709;DHT22;1870;53.996;10.784;2023-09-18T02:51:04;19.70;99.90
3709;DHT22;1870;53.996;10.784;2023-09-18T02:53:30;19.70;99.90
3709;DHT22;1870;53.996;10.784;2023-09-18T02:55:59;19.70;99.90
3709;DHT22;1870;53.996;10.784;2023-09-18T02:58:26;19.70;99.90
3709;DHT22;1870;53.996;10.784;2023-09-18T03:00:55;19.70;99.90
3709;DHT22;1870;53.996;10.784;2023-09-18T03:03:20;19.70;99.90
3709;DHT22;1870;53.996;10.784;2023-09-18T03:05:46;19.80;99.90
3709;DHT22;1870;53.996;10.784;2023-09-18T03:08:14;19.70;99.90
3709;DHT22;1870;53.996;10.784;2023-09-18T03:10:41;19.70;99.90
3709;DHT22;1870;53.996;10.784;2023-09-18T03:13:09;19.70;99.90
3709;DHT22;1870;53.996;10.784;2023-09-18T03:15:35;19.70;99.90
3709;DHT22;1870;53.996;10.784;2023-09-18T03:18:02;19.70;99.90
3709;DHT22;1870;53.996;10.784;2023-09-18T03:20:29;19.70;99.90
3709;DHT22;1870;53.996;10.784;2023-09-18T03:22:56;19.70;99.90
3709;DHT22;1870;53.996;10.784;2023-09-18T03:25:23;19.70;99.90
3709;DHT22;1870;53.996;10.784;2023-09-18T03:27:52;19.70;99.90
3709;DHT22;1870;53.996;10.784;2023-09-18T03:30:19;19.70;99.90
3709;DHT22;1870;53.996;10.784;2023-09-18T03:32:45;19.70;99.90
3709;DHT22;1870;53.996;10.784;2023-09-18T03:35:20;19.70;99.90
3709;DHT22;1870;53.996;10.784;2023-09-18T03:37:53;19.70;99.90
3709;DHT22;1870;53.996;10.784;2023-09-18T03:40:22;19.70;99.90
3709;DHT22;1870;53.996;10.784;2023-09-18T03:42:48;19.70;99.90
3709;DHT22;1870;53.996;10.784;2023-09-18T03:45:14;19.60;99.90
3709;DHT22;1870;53.996;10.784;2023-09-18T03:47:41;19.60;99.90
3709;DHT22;1870;53.996;10.784;2023-09-18T03:50:11;19.60;99.90
3709;DHT22;1870;53.996;10.784;2023-09-18T03:52:39;19.60;99.90
3709;DHT22;1870;53.996;10.784;2023-09-18T03:55:06;19.50;99.90
3709;DHT22;1870;53.996;10.784;2023-09-18T03:57:31;19.50;99.90
3709;DHT22;1870;53.996;10.784;2023-09-18T03:59:57;19.40;99.90
3709;DHT22;1870;53.996;10.784;2023-09-18T04:02:25;19.40;99.90
3709;DHT22;1870;53.996;10.784;2023-09-18T04:04:51;19.40;99.90
3709;DHT22;1870;53.996;10.784;2023-09-18T04:07:16;19.30;99.90
3709;DHT22;1870;53.996;10.784;2023-09-18T04:09:43;19.30;99.90
3709;DHT22;1870;53.996;10.784;2023-09-18T04:12:09;19.30;99.90
3709;DHT22;1870;53.996;10.784;2023-09-18T04:14:35;19.30;99.90
3709;DHT22;1870;53.996;10.784;2023-09-18T04:17:01;19.20;99.90
3709;DHT22;1870;53.996;10.784;2023-09-18T04:19:27;19.20;99.90
3709;DHT22;1870;53.996;10.784;2023-09-18T04:21:53;19.20;99.90
3709;DHT22;1870;53.996;10.784;2023-09-18T04:24:19;19.20;99.90
3709;DHT22;1870;53.996;10.784;2023-09-18T04:26:44;19.20;99.90
3709;DHT22;1870;53.996;10.784;2023-09-18T04:29:11;19.20;99.90
3709;DHT22;1870;53.996;10.784;2023-09-18T04:31:37;19.20;99.90
3709;DHT22;1870;53.996;10.784;2023-09-18T04:34:03;19.20;99.90
3709;DHT22;1870;53.996;10.784;2023-09-18T04:36:29;19.20;99.90
3709;DHT22;1870;53.996;10.784;2023-09-18T04:38:55;19.20;99.90
3709;DHT22;1870;53.996;10.784;2023-09-18T04:41:20;19.20;99.90
3709;DHT22;1870;53.996;10.784;2023-09-18T04:43:46;19.20;99.90
3709;DHT22;1870;53.996;10.784;2023-09-18T04:46:12;19.20;99.90
3709;DHT22;1870;53.996;10.784;2023-09-18T04:48:38;19.20;99.90
3709;DHT22;1870;53.996;10.784;2023-09-18T04:51:04;19.20;99.90
3709;DHT22;1870;53.996;10.784;2023-09-18T04:53:30;19.10;99.90
3709;DHT22;1870;53.996;10.784;2023-09-18T04:55:56;19.10;99.90
3709;DHT22;1870;53.996;10.784;2023-09-18T04:58:22;19.10;99.90
3709;DHT22;1870;53.996;10.784;2023-09-18T05:00:56;19.10;99.90
3709;DHT22;1870;53.996;10.784;2023-09-18T05:03:23;19.00;99.90
3709;DHT22;1870;53.996;10.784;2023-09-18T05:05:49;19.10;99.90
3709;DHT22;1870;53.996;10.784;2023-09-18T05:08:16;19.00;99.90
3709;DHT22;1870;53.996;10.784;2023-09-18T05:10:42;19.00;99.90
3709;DHT22;1870;53.996;10.784;2023-09-18T05:13:09;19.00;99.90
3709;DHT22;1870;53.996;10.784;2023-09-18T05:15:35;19.00;99.90
3709;DHT22;1870;53.996;10.784;2023-09-18T05:18:01;19.10;99.90
3709;DHT22;1870;53.996;10.784;2023-09-18T05:20:28;19.00;99.90
3709;DHT22;1870;53.996;10.784;2023-09-18T05:22:55;19.00;99.90
3709;DHT22;1870;53.996;10.784;2023-09-18T05:25:22;19.00;99.90
3709;DHT22;1870;53.996;10.784;2023-09-18T05:27:50;19.10;99.90
3709;DHT22;1870;53.996;10.784;2023-09-18T05:30:29;19.10;99.90
3709;DHT22;1870;53.996;10.784;2023-09-18T05:32:58;19.10;99.90
3709;DHT22;1870;53.996;10.784;2023-09-18T05:37:58;19.20;99.90
3709;DHT22;1870;53.996;10.784;2023-09-18T05:40:25;19.30;99.90
3709;DHT22;1870;53.996;10.784;2023-09-18T05:42:55;19.30;99.90
3709;DHT22;1870;53.996;10.784;2023-09-18T05:45:21;19.30;99.90
3709;DHT22;1870;53.996;10.784;2023-09-18T05:47:47;19.30;99.90
3709;DHT22;1870;53.996;10.784;2023-09-18T05:50:14;19.30;99.90
3709;DHT22;1870;53.996;10.784;2023-09-18T05:52:41;19.30;99.90
3709;DHT22;1870;53.996;10.784;2023-09-18T05:55:07;19.30;99.90
3709;DHT22;1870;53.996;10.784;2023-09-18T05:57:34;19.50;99.90
3709;DHT22;1870;53.996;10.784;2023-09-18T05:59:59;19.60;99.90
3709;DHT22;1870;53.996;10.784;2023-09-18T06:02:26;19.70;99.90
3709;DHT22;1870;53.996;10.784;2023-09-18T06:04:56;19.80;99.90
3709;DHT22;1870;53.996;10.784;2023-09-18T06:07:24;19.90;99.90
3709;DHT22;1870;53.996;10.784;2023-09-18T06:09:50;20.00;99.90
3709;DHT22;1870;53.996;10.784;2023-09-18T06:12:15;19.90;99.90
3709;DHT22;1870;53.996;10.784;2023-09-18T06:14:42;20.00;99.90
3709;DHT22;1870;53.996;10.784;2023-09-18T06:17:08;20.10;99.90
3709;DHT22;1870;53.996;10.784;2023-09-18T06:19:35;20.20;99.90
3709;DHT22;1870;53.996;10.784;2023-09-18T06:22:01;20.30;99.90
3709;DHT22;1870;53.996;10.784;2023-09-18T06:24:27;20.40;99.90
3709;DHT22;1870;53.996;10.784;2023-09-18T06:26:53;20.40;99.90
3709;DHT22;1870;53.996;10.784;2023-09-18T06:29:19;20.60;99.90
3709;DHT22;1870;53.996;10.784;2023-09-18T06:31:45;20.50;99.90
3709;DHT22;1870;53.996;10.784;2023-09-18T06:34:10;20.60;99.90
3709;DHT22;1870;53.996;10.784;2023-09-18T06:36:36;20.70;99.90
3709;DHT22;1870;53.996;10.784;2023-09-18T06:39:03;20.70;99.90
3709;DHT22;1870;53.996;10.784;2023-09-18T06:41:28;20.70;99.90
3709;DHT22;1870;53.996;10.784;2023-09-18T06:43:54;20.70;99.90
3709;DHT22;1870;53.996;10.784;2023-09-18T06:46:19;20.60;99.90
3709;DHT22;1870;53.996;10.784;2023-09-18T06:48:45;20.60;99.90
3709;DHT22;1870;53.996;10.784;2023-09-18T06:51:15;20.60;99.90
3709;DHT22;1870;53.996;10.784;2023-09-18T06:53:41;20.70;99.90
3709;DHT22;1870;53.996;10.784;2023-09-18T06:56:06;20.80;99.90
3709;DHT22;1870;53.996;10.784;2023-09-18T06:58:32;20.80;99.90
3709;DHT22;1870;53.996;10.784;2023-09-18T07:00:58;20.80;99.90
3709;DHT22;1870;53.996;10.784;2023-09-18T07:03:23;20.90;99.90
3709;DHT22;1870;53.996;10.784;2023-09-18T07:05:49;20.90;99.90
3709;DHT22;1870;53.996;10.784;2023-09-18T07:08:15;21.00;99.90
3709;DHT22;1870;53.996;10.784;2023-09-18T07:10:45;21.00;99.90
3709;DHT22;1870;53.996;10.784;2023-09-18T07:13:10;21.10;99.90
3709;DHT22;1870;53.996;10.784;2023-09-18T07:15:37;21.10;99.90
3709;DHT22;1870;53.996;10.784;2023-09-18T07:18:03;21.30;99.90
3709;DHT22;1870;53.996;10.784;2023-09-18T07:20:29;21.40;99.90
3709;DHT22;1870;53.996;10.784;2023-09-18T07:22:55;21.50;99.90
3709;DHT22;1870;53.996;10.784;2023-09-18T07:25:21;21.40;99.90
3709;DHT22;1870;53.996;10.784;2023-09-18T07:27:47;21.50;99.90
3709;DHT22;1870;53.996;10.784;2023-09-18T07:30:14;21.60;99.90
3709;DHT22;1870;53.996;10.784;2023-09-18T07:32:45;21.70;99.90
3709;DHT22;1870;53.996;10.784;2023-09-18T07:35:11;21.80;99.90
3709;DHT22;1870;53.996;10.784;2023-09-18T07:37:39;21.80;99.90
3709;DHT22;1870;53.996;10.784;2023-09-18T07:40:07;22.00;99.90
3709;DHT22;1870;53.996;10.784;2023-09-18T07:42:33;21.90;99.90
3709;DHT22;1870;53.996;10.784;2023-09-18T07:44:59;22.10;99.90
3709;DHT22;1870;53.996;10.784;2023-09-18T07:47:25;22.20;99.90
3709;DHT22;1870;53.996;10.784;2023-09-18T07:49:51;22.30;99.90
3709;DHT22;1870;53.996;10.784;2023-09-18T07:52:17;22.40;99.90
3709;DHT22;1870;53.996;10.784;2023-09-18T07:54:45;22.60;99.90
3709;DHT22;1870;53.996;10.784;2023-09-18T07:57:10;22.70;99.90
3709;DHT22;1870;53.996;10.784;2023-09-18T07:59:36;22.80;99.90
3709;DHT22;1870;53.996;10.784;2023-09-18T08:02:02;22.80;99.90
3709;DHT22;1870;53.996;10.784;2023-09-18T08:04:31;23.00;99.90
3709;DHT22;1870;53.996;10.784;2023-09-18T08:06:57;23.10;99.90
3709;DHT22;1870;53.996;10.784;2023-09-18T08:09:23;23.10;99.90
3709;DHT22;1870;53.996;10.784;2023-09-18T08:11:49;23.20;99.90
3709;DHT22;1870;53.996;10.784;2023-09-18T08:14:16;23.30;99.90
3709;DHT22;1870;53.996;10.784;2023-09-18T08:16:42;23.40;99.90
3709;DHT22;1870;53.996;10.784;2023-09-18T08:19:08;23.50;99.90
3709;DHT22;1870;53.996;10.784;2023-09-18T08:21:34;23.70;99.90
3709;DHT22;1870;53.996;10.784;2023-09-18T08:24:02;23.70;99.90
3709;DHT22;1870;53.996;10.784;2023-09-18T08:26:27;23.80;99.90
3709;DHT22;1870;53.996;10.784;2023-09-18T08:28:54;24.00;99.90
3709;DHT22;1870;53.996;10.784;2023-09-18T08:31:19;24.00;99.90
3709;DHT22;1870;53.996;10.784;2023-09-18T08:33:48;24.10;99.90
3709;DHT22;1870;53.996;10.784;2023-09-18T08:36:13;24.20;99.90
3709;DHT22;1870;53.996;10.784;2023-09-18T08:38:41;24.30;99.90
3709;DHT22;1870;53.996;10.784;2023-09-18T08:41:10;24.40;99.90
3709;DHT22;1870;53.996;10.784;2023-09-18T08:43:37;24.50;99.90
3709;DHT22;1870;53.996;10.784;2023-09-18T08:46:04;24.70;99.90
3709;DHT22;1870;53.996;10.784;2023-09-18T08:48:32;24.90;99.90
3709;DHT22;1870;53.996;10.784;2023-09-18T08:51:07;25.00;99.90
3709;DHT22;1870;53.996;10.784;2023-09-18T08:53:35;25.10;99.90
3709;DHT22;1870;53.996;10.784;2023-09-18T08:56:04;25.00;99.90
3709;DHT22;1870;53.996;10.784;2023-09-18T08:58:34;25.10;99.90
3709;DHT22;1870;53.996;10.784;2023-09-18T09:01:03;25.30;99.90
3709;DHT22;1870;53.996;10.784;2023-09-18T09:03:41;25.30;99.90
3709;DHT22;1870;53.996;10.784;2023-09-18T09:06:12;25.30;99.90
3709;DHT22;1870;53.996;10.784;2023-09-18T09:08:38;25.30;99.90
3709;DHT22;1870;53.996;10.784;2023-09-18T09:11:05;25.20;99.90
3709;DHT22;1870;53.996;10.784;2023-09-18T09:13:31;25.20;99.90
3709;DHT22;1870;53.996;10.784;2023-09-18T09:15:58;25.30;99.90
3709;DHT22;1870;53.996;10.784;2023-09-18T09:18:28;25.40;99.90
3709;DHT22;1870;53.996;10.784;2023-09-18T09:21:01;25.30;99.90
3709;DHT22;1870;53.996;10.784;2023-09-18T09:23:42;25.40;99.90
3709;DHT22;1870;53.996;10.784;2023-09-18T09:26:20;25.40;99.90
3709;DHT22;1870;53.996;10.784;2023-09-18T09:28:46;25.50;99.90
3709;DHT22;1870;53.996;10.784;2023-09-18T09:31:27;25.60;99.90
3709;DHT22;1870;53.996;10.784;2023-09-18T09:33:54;25.70;99.90
3709;DHT22;1870;53.996;10.784;2023-09-18T09:36:21;25.80;99.90
3709;DHT22;1870;53.996;10.784;2023-09-18T09:38:47;25.80;99.90
3709;DHT22;1870;53.996;10.784;2023-09-18T09:41:16;25.70;99.90
3709;DHT22;1870;53.996;10.784;2023-09-18T09:43:43;25.50;99.90
3709;DHT22;1870;53.996;10.784;2023-09-18T09:46:17;25.50;99.90
3709;DHT22;1870;53.996;10.784;2023-09-18T09:49:03;25.60;99.90
3709;DHT22;1870;53.996;10.784;2023-09-18T09:51:30;25.70;99.90
3709;DHT22;1870;53.996;10.784;2023-09-18T09:53:56;25.80;99.90
3709;DHT22;1870;53.996;10.784;2023-09-18T09:56:46;26.00;99.90
3709;DHT22;1870;53.996;10.784;2023-09-18T09:59:14;26.00;99.90
3709;DHT22;1870;53.996;10.784;2023-09-18T10:01:41;26.00;99.90
3709;DHT22;1870;53.996;10.784;2023-09-18T10:04:14;26.10;99.90
3709;DHT22;1870;53.996;10.784;2023-09-18T10:06:47;26.00;99.90
3709;DHT22;1870;53.996;10.784;2023-09-18T10:09:17;26.10;99.90
3709;DHT22;1870;53.996;10.784;2023-09-18T10:11:49;26.00;99.90
3709;DHT22;1870;53.996;10.784;2023-09-18T10:14:26;26.00;99.90
3709;DHT22;1870;53.996;10.784;2023-09-18T10:16:57;26.20;99.90
3709;DHT22;1870;53.996;10.784;2023-09-18T10:19:39;26.20;99.90
3709;DHT22;1870;53.996;10.784;2023-09-18T10:22:15;26.10;99.90
3709;DHT22;1870;53.996;10.784;2023-09-18T10:24:47;26.00;99.90
3709;DHT22;1870;53.996;10.784;2023-09-18T10:27:16;26.20;99.90
3709;DHT22;1870;53.996;10.784;2023-09-18T10:29:43;26.10;99.90
3709;DHT22;1870;53.996;10.784;2023-09-18T10:32:14;26.20;99.90
3709;DHT22;1870;53.996;10.784;2023-09-18T10:34:40;26.20;99.90
3709;DHT22;1870;53.996;10.784;2023-09-18T10:37:08;26.30;99.90
3709;DHT22;1870;53.996;10.784;2023-09-18T10:39:37;26.20;99.90
3709;DHT22;1870;53.996;10.784;2023-09-18T10:42:07;26.20;99.90
3709;DHT22;1870;53.996;10.784;2023-09-18T10:44:33;26.20;99.90
3709;DHT22;1870;53.996;10.784;2023-09-18T10:47:01;26.20;99.90
3709;DHT22;1870;53.996;10.784;2023-09-18T10:49:28;26.30;99.90
3709;DHT22;1870;53.996;10.784;2023-09-18T10:51:55;26.30;99.90
3709;DHT22;1870;53.996;10.784;2023-09-18T10:54:23;26.10;99.90
3709;DHT22;1870;53.996;10.784;2023-09-18T10:56:50;26.20;99.90
3709;DHT22;1870;53.996;10.784;2023-09-18T10:59:17;26.20;99.90
3709;DHT22;1870;53.996;10.784;2023-09-18T11:01:43;26.30;99.90
3709;DHT22;1870;53.996;10.784;2023-09-18T11:04:10;26.30;99.90
3709;DHT22;1870;53.996;10.784;2023-09-18T11:09:27;26.20;99.90
3709;DHT22;1870;53.996;10.784;2023-09-18T11:12:02;26.10;99.90
3709;DHT22;1870;53.996;10.784;2023-09-18T11:17:36;26.10;99.90
3709;DHT22;1870;53.996;10.784;2023-09-18T11:20:28;26.10;99.90
3709;DHT22;1870;53.996;10.784;2023-09-18T11:23:20;26.10;99.90
3709;DHT22;1870;53.996;10.784;2023-09-18T11:25:58;26.20;99.90
3709;DHT22;1870;53.996;10.784;2023-09-18T11:28:25;26.10;99.90
3709;DHT22;1870;53.996;10.784;2023-09-18T11:30:53;26.10;99.90
3709;DHT22;1870;53.996;10.784;2023-09-18T11:33:32;26.10;99.90
3709;DHT22;1870;53.996;10.784;2023-09-18T11:36:06;26.10;99.90
3709;DHT22;1870;53.996;10.784;2023-09-18T11:38:34;26.40;99.90
3709;DHT22;1870;53.996;10.784;2023-09-18T11:41:18;26.40;99.90
3709;DHT22;1870;53.996;10.784;2023-09-18T11:43:45;26.40;99.90
3709;DHT22;1870;53.996;10.784;2023-09-18T11:46:11;26.50;99.90
3709;DHT22;1870;53.996;10.784;2023-09-18T11:48:38;26.60;99.90
3709;DHT22;1870;53.996;10.784;2023-09-18T11:51:07;26.70;99.90
3709;DHT22;1870;53.996;10.784;2023-09-18T11:53:37;26.70;99.90
3709;DHT22;1870;53.996;10.784;2023-09-18T11:56:10;26.90;99.90
3709;DHT22;1870;53.996;10.784;2023-09-18T11:58:50;26.80;99.90
3709;DHT22;1870;53.996;10.784;2023-09-18T12:01:18;26.80;99.90
3709;DHT22;1870;53.996;10.784;2023-09-18T12:03:44;26.60;99.90
3709;DHT22;1870;53.996;10.784;2023-09-18T12:06:10;26.40;99.90
3709;DHT22;1870;53.996;10.784;2023-09-18T12:08:39;26.40;99.90
3709;DHT22;1870;53.996;10.784;2023-09-18T12:11:06;26.30;99.90
3709;DHT22;1870;53.996;10.784;2023-09-18T12:13:32;26.40;99.90
3709;DHT22;1870;53.996;10.784;2023-09-18T12:16:03;26.30;99.90
3709;DHT22;1870;53.996;10.784;2023-09-18T12:18:32;26.20;99.90
3709;DHT22;1870;53.996;10.784;2023-09-18T12:21:01;26.30;99.90
3709;DHT22;1870;53.996;10.784;2023-09-18T12:23:36;26.10;99.90
3709;DHT22;1870;53.996;10.784;2023-09-18T12:26:03;26.20;99.90
3709;DHT22;1870;53.996;10.784;2023-09-18T12:28:29;26.20;99.90
3709;DHT22;1870;53.996;10.784;2023-09-18T12:30:56;26.20;99.90
3709;DHT22;1870;53.996;10.784;2023-09-18T12:33:25;26.20;99.90
3709;DHT22;1870;53.996;10.784;2023-09-18T12:35:51;26.20;99.90
3709;DHT22;1870;53.996;10.784;2023-09-18T12:38:19;26.30;99.90
3709;DHT22;1870;53.996;10.784;2023-09-18T12:40:48;26.30;99.90
3709;DHT22;1870;53.996;10.784;2023-09-18T12:43:14;26.30;99.90
3709;DHT22;1870;53.996;10.784;2023-09-18T12:45:42;26.30;99.90
3709;DHT22;1870;53.996;10.784;2023-09-18T12:48:08;26.20;99.90
3709;DHT22;1870;53.996;10.784;2023-09-18T12:50:34;26.30;99.90
3709;DHT22;1870;53.996;10.784;2023-09-18T12:53:11;26.40;99.90
3709;DHT22;1870;53.996;10.784;2023-09-18T12:55:38;26.30;99.90
3709;DHT22;1870;53.996;10.784;2023-09-18T12:58:05;26.30;99.90
3709;DHT22;1870;53.996;10.784;2023-09-18T13:00:33;26.30;99.90
3709;DHT22;1870;53.996;10.784;2023-09-18T13:03:00;26.50;99.90
3709;DHT22;1870;53.996;10.784;2023-09-18T13:05:26;26.60;99.90
3709;DHT22;1870;53.996;10.784;2023-09-18T13:07:53;26.90;99.90
3709;DHT22;1870;53.996;10.784;2023-09-18T13:10:19;27.10;99.90
3709;DHT22;1870;53.996;10.784;2023-09-18T13:12:51;27.10;99.90
3709;DHT22;1870;53.996;10.784;2023-09-18T13:15:29;27.10;99.90
3709;DHT22;1870;53.996;10.784;2023-09-18T13:17:57;27.20;99.90
3709;DHT22;1870;53.996;10.784;2023-09-18T13:20:28;27.10;99.90
3709;DHT22;1870;53.996;10.784;2023-09-18T13:22:56;26.80;99.90
3709;DHT22;1870;53.996;10.784;2023-09-18T13:25:35;26.60;99.90
3709;DHT22;1870;53.996;10.784;2023-09-18T13:28:05;26.50;99.90
3709;DHT22;1870;53.996;10.784;2023-09-18T13:30:32;26.70;99.90
3709;DHT22;1870;53.996;10.784;2023-09-18T13:33:04;26.60;99.90
3709;DHT22;1870;53.996;10.784;2023-09-18T13:35:35;26.50;99.90
3709;DHT22;1870;53.996;10.784;2023-09-18T13:38:05;26.60;99.90
3709;DHT22;1870;53.996;10.784;2023-09-18T13:40:32;26.50;99.90
3709;DHT22;1870;53.996;10.784;2023-09-18T13:42:59;26.60;99.90
3709;DHT22;1870;53.996;10.784;2023-09-18T13:45:24;26.90;99.90
3709;DHT22;1870;53.996;10.784;2023-09-18T13:47:50;27.10;99.90
3709;DHT22;1870;53.996;10.784;2023-09-18T13:50:16;27.30;99.90
3709;DHT22;1870;53.996;10.784;2023-09-18T13:52:42;27.30;99.90
3709;DHT22;1870;53.996;10.784;2023-09-18T13:55:07;27.20;99.90
3709;DHT22;1870;53.996;10.784;2023-09-18T13:57:35;27.10;99.90
3709;DHT22;1870;53.996;10.784;2023-09-18T14:00:04;27.00;99.90
3709;DHT22;1870;53.996;10.784;2023-09-18T14:02:36;27.10;99.90
3709;DHT22;1870;53.996;10.784;2023-09-18T14:05:02;27.20;99.90
3709;DHT22;1870;53.996;10.784;2023-09-18T14:07:29;27.10;99.90
3709;DHT22;1870;53.996;10.784;2023-09-18T14:09:54;27.10;99.90
3709;DHT22;1870;53.996;10.784;2023-09-18T14:12:20;26.80;99.90
3709;DHT22;1870;53.996;10.784;2023-09-18T14:14:48;26.60;99.90
3709;DHT22;1870;53.996;10.784;2023-09-18T14:17:13;26.80;99.90
3709;DHT22;1870;53.996;10.784;2023-09-18T14:19:42;26.50;99.90
3709;DHT22;1870;53.996;10.784;2023-09-18T14:22:09;26.60;99.90
3709;DHT22;1870;53.996;10.784;2023-09-18T14:24:34;26.50;99.90
3709;DHT22;1870;53.996;10.784;2023-09-18T14:27:01;26.30;99.90
3709;DHT22;1870;53.996;10.784;2023-09-18T14:29:28;26.30;99.90
3709;DHT22;1870;53.996;10.784;2023-09-18T14:31:56;26.30;99.90
3709;DHT22;1870;53.996;10.784;2023-09-18T14:34:21;26.20;99.90
3709;DHT22;1870;53.996;10.784;2023-09-18T14:36:47;26.10;99.90
3709;DHT22;1870;53.996;10.784;2023-09-18T14:39:13;26.10;99.90
3709;DHT22;1870;53.996;10.784;2023-09-18T14:41:39;26.20;99.90
3709;DHT22;1870;53.996;10.784;2023-09-18T14:44:06;26.10;99.90
3709;DHT22;1870;53.996;10.784;2023-09-18T14:46:34;26.20;99.90
3709;DHT22;1870;53.996;10.784;2023-09-18T14:49:00;26.20;99.90
3709;DHT22;1870;53.996;10.784;2023-09-18T14:51:30;26.20;99.90
3709;DHT22;1870;53.996;10.784;2023-09-18T14:53:56;26.20;99.90
3709;DHT22;1870;53.996;10.784;2023-09-18T14:56:23;26.20;99.90
3709;DHT22;1870;53.996;10.784;2023-09-18T14:58:49;26.30;99.90
3709;DHT22;1870;53.996;10.784;2023-09-18T15:01:18;26.30;99.90
3709;DHT22;1870;53.996;10.784;2023-09-18T15:03:44;26.30;99.90
3709;DHT22;1870;53.996;10.784;2023-09-18T15:06:16;26.20;99.90
3709;DHT22;1870;53.996;10.784;2023-09-18T15:08:42;26.00;99.90
3709;DHT22;1870;53.996;10.784;2023-09-18T15:11:07;25.80;99.90
3709;DHT22;1870;53.996;10.784;2023-09-18T15:13:34;25.60;99.90
3709;DHT22;1870;53.996;10.784;2023-09-18T15:16:03;25.60;99.90
3709;DHT22;1870;53.996;10.784;2023-09-18T15:18:30;25.80;99.90
3709;DHT22;1870;53.996;10.784;2023-09-18T15:20:55;25.70;99.90
3709;DHT22;1870;53.996;10.784;2023-09-18T15:23:22;25.70;99.90
3709;DHT22;1870;53.996;10.784;2023-09-18T15:25:49;25.70;99.90
3709;DHT22;1870;53.996;10.784;2023-09-18T15:28:16;25.70;99.90
3709;DHT22;1870;53.996;10.784;2023-09-18T15:30:44;25.70;99.90
3709;DHT22;1870;53.996;10.784;2023-09-18T15:33:10;25.70;99.90
3709;DHT22;1870;53.996;10.784;2023-09-18T15:35:36;25.80;99.90
3709;DHT22;1870;53.996;10.784;2023-09-18T15:38:03;25.90;99.90
3709;DHT22;1870;53.996;10.784;2023-09-18T15:40:32;25.90;99.90
3709;DHT22;1870;53.996;10.784;2023-09-18T15:42:58;25.70;99.90
3709;DHT22;1870;53.996;10.784;2023-09-18T15:45:25;25.60;99.90
3709;DHT22;1870;53.996;10.784;2023-09-18T15:47:51;25.60;99.90
3709;DHT22;1870;53.996;10.784;2023-09-18T15:50:17;25.50;99.90
3709;DHT22;1870;53.996;10.784;2023-09-18T15:52:43;25.40;99.90
3709;DHT22;1870;53.996;10.784;2023-09-18T15:55:08;25.50;99.90